Time;durP1;ratioP1;P1;durP2;ratioP2;P2;SDS_P1;SDS_P2;PMS_P1;PMS_P2;Temp;Humidity;BMP_temperature;BMP_pressure;BME280_temperature;BME280_humidity;BME280_pressure;Samples;Min_cycle;Max_cycle;Signal;HPM_P1;HPM_P2
2022/11/07 00:01:48;;;;;;;1.87;0.83;;;19.70;45.40;18.70;100313.00;;;;5045729;28;20470;-72
2022/11/07 00:04:14;;;;;;;1.70;1.02;;;19.60;45.40;18.70;100314.00;;;;5049657;28;20062;-72
2022/11/07 00:06:40;;;;;;;3.20;1.10;;;19.60;45.50;18.70;100311.00;;;;5070830;28;20040;-72
2022/11/07 00:09:06;;;;;;;2.73;1.00;;;19.60;45.60;18.70;100318.00;;;;5048205;28;20040;-72
2022/11/07 00:11:32;;;;;;;2.27;1.20;;;19.60;45.60;18.70;100319.00;;;;5046347;28;20401;-72
2022/11/07 00:13:57;;;;;;;1.37;0.90;;;19.60;45.60;18.70;100314.00;;;;5040083;28;20024;-72
2022/11/07 00:16:25;;;;;;;2.13;0.90;;;19.60;45.70;18.70;100306.00;;;;5051386;28;20436;-72
2022/11/07 00:18:51;;;;;;;1.98;1.00;;;19.60;45.60;18.70;100330.00;;;;5069963;28;20012;-73
2022/11/07 00:21:17;;;;;;;1.70;1.20;;;19.60;45.70;18.70;100326.00;;;;5051578;28;20055;-72
2022/11/07 00:23:43;;;;;;;2.30;1.00;;;19.60;45.70;18.70;100318.00;;;;5066641;28;20036;-72
2022/11/07 00:26:11;;;;;;;6.03;1.27;;;19.60;45.80;18.70;100320.00;;;;5070728;28;20107;-72
2022/11/07 00:28:39;;;;;;;1.50;0.82;;;19.60;45.90;18.70;100331.00;;;;5064750;28;20025;-72
2022/11/07 00:31:05;;;;;;;3.67;1.13;;;19.60;46.00;18.70;100326.00;;;;5051808;28;20059;-72
2022/11/07 00:33:31;;;;;;;2.50;0.90;;;19.60;45.80;18.70;100337.00;;;;5045942;28;20032;-72
2022/11/07 00:35:56;;;;;;;1.20;0.83;;;19.60;45.90;18.70;100337.00;;;;5070177;28;20337;-72
2022/11/07 00:38:22;;;;;;;2.43;1.00;;;19.60;46.00;18.70;100334.00;;;;5063071;28;20115;-72
2022/11/07 00:41:02;;;;;;;2.03;0.80;;;19.60;46.00;18.70;100336.00;;;;5069920;28;20029;-72
2022/11/07 00:43:28;;;;;;;1.67;0.82;;;19.60;46.20;18.70;100335.00;;;;5048796;28;20031;-72
2022/11/07 00:45:54;;;;;;;1.63;0.90;;;19.50;46.00;18.70;100336.00;;;;5051195;28;20494;-72
2022/11/07 00:48:20;;;;;;;1.27;0.70;;;19.60;46.00;18.70;100342.00;;;;5051800;28;20446;-72
2022/11/07 00:50:46;;;;;;;1.17;0.60;;;19.60;46.10;18.70;100349.00;;;;5052301;28;20498;-72
2022/11/07 00:53:11;;;;;;;1.93;0.97;;;19.60;46.20;18.70;100351.00;;;;5052379;28;20398;-72
2022/11/07 00:55:37;;;;;;;0.77;0.70;;;19.60;46.20;18.70;100355.00;;;;5069820;28;20035;-72
2022/11/07 00:58:03;;;;;;;0.77;0.57;;;19.60;46.20;18.70;100356.00;;;;5070004;28;20120;-72
2022/11/07 01:00:29;;;;;;;1.63;0.70;;;19.60;46.20;18.70;100350.00;;;;5069143;28;20034;-72
2022/11/07 01:05:39;;;;;;;2.58;0.98;;;19.70;46.30;18.70;100361.00;;;;5055469;28;20031;-72
2022/11/07 01:08:05;;;;;;;1.60;0.80;;;19.60;46.30;18.70;100362.00;;;;5052288;28;20036;-72
2022/11/07 01:10:30;;;;;;;0.87;0.70;;;19.60;46.30;18.70;100353.00;;;;5051672;28;20037;-72
2022/11/07 01:12:56;;;;;;;3.07;1.50;;;19.60;46.30;18.70;100363.00;;;;5051905;28;20364;-72
2022/11/07 01:15:22;;;;;;;1.67;0.80;;;19.60;46.50;18.70;100362.00;;;;5052944;28;20111;-72
2022/11/07 01:17:48;;;;;;;2.80;1.37;;;19.60;46.50;18.70;100363.00;;;;5066012;28;20037;-72
2022/11/07 01:20:13;;;;;;;2.30;0.90;;;19.60;46.40;18.70;100354.00;;;;5073673;28;20115;-72
2022/11/07 01:22:39;;;;;;;2.57;1.03;;;19.60;46.50;18.70;100363.00;;;;5077054;28;20504;-72
2022/11/07 01:25:05;;;;;;;2.17;1.20;;;19.60;46.50;18.70;100361.00;;;;5055608;28;20033;-72
2022/11/07 01:27:31;;;;;;;5.35;0.80;;;19.60;46.50;18.70;100360.00;;;;5056573;28;20077;-72
2022/11/07 01:29:57;;;;;;;3.67;0.80;;;19.60;46.50;18.70;100374.00;;;;5080277;28;20037;-72
2022/11/07 01:32:23;;;;;;;3.67;1.37;;;19.60;46.50;18.70;100383.00;;;;5079294;28;20119;-72
2022/11/07 01:34:48;;;;;;;1.33;0.73;;;19.60;46.50;18.70;100381.00;;;;5055123;28;20198;-72
2022/11/07 01:37:14;;;;;;;2.77;0.73;;;19.70;46.50;18.70;100381.00;;;;5056319;28;20073;-72
2022/11/07 01:39:40;;;;;;;1.73;0.70;;;19.60;46.50;18.70;100380.00;;;;5055308;28;20033;-72
2022/11/07 01:42:05;;;;;;;3.23;0.80;;;19.60;46.50;18.70;100380.00;;;;5054981;28;20099;-72
2022/11/07 01:44:53;;;;;;;0.90;0.80;;;19.60;46.50;18.70;100380.00;;;;5078256;28;20055;-72
2022/11/07 01:47:19;;;;;;;0.93;0.60;;;19.60;46.50;18.70;100364.00;;;;5064316;28;20040;-72
2022/11/07 01:49:45;;;;;;;3.70;1.13;;;19.60;46.50;18.80;100377.00;;;;5039870;28;20046;-72
2022/11/07 01:52:33;;;;;;;3.17;1.00;;;19.70;46.60;18.70;100381.00;;;;5063382;28;20359;-73
2022/11/07 01:55:14;;;;;;;2.38;0.68;;;19.60;46.50;18.70;100370.00;;;;5072431;28;20028;-72
2022/11/07 01:57:48;;;;;;;1.52;0.60;;;19.70;46.60;18.70;100365.00;;;;5074403;28;20077;-72
2022/11/07 02:00:16;;;;;;;2.58;0.77;;;19.70;46.50;18.70;100370.00;;;;5055195;28;20478;-72
2022/11/07 02:02:42;;;;;;;1.17;0.85;;;19.70;46.60;18.70;100379.00;;;;5062308;28;20262;-72
2022/11/07 02:05:08;;;;;;;2.10;0.90;;;19.60;46.50;18.70;100383.00;;;;5054734;28;20446;-72
2022/11/07 02:07:34;;;;;;;2.53;0.82;;;19.70;46.60;18.70;100377.00;;;;5038018;28;20032;-72
2022/11/07 02:09:59;;;;;;;4.23;1.20;;;19.70;46.60;18.70;100383.00;;;;5062288;28;20127;-72
2022/11/07 02:12:25;;;;;;;1.57;0.90;;;19.70;46.60;18.70;100375.00;;;;5074044;28;20052;-72
2022/11/07 02:14:51;;;;;;;4.05;1.10;;;19.70;46.60;18.70;100393.00;;;;5053888;28;20035;-72
2022/11/07 02:17:17;;;;;;;2.47;0.90;;;19.70;46.60;18.70;100388.00;;;;5056021;28;20025;-72
2022/11/07 02:19:47;;;;;;;2.27;1.20;;;19.70;46.60;18.70;100383.00;;;;5053957;28;20020;-73
2022/11/07 02:22:23;;;;;;;3.75;1.10;;;19.70;46.60;18.70;100384.00;;;;5050690;28;20029;-72
2022/11/07 02:24:52;;;;;;;1.45;0.80;;;19.60;46.80;18.70;100389.00;;;;5068403;28;20035;-72
2022/11/07 02:27:20;;;;;;;1.33;0.90;;;19.70;46.70;18.70;100393.00;;;;5035241;28;20032;-72
2022/11/07 02:29:48;;;;;;;3.92;0.98;;;19.60;46.80;18.70;100384.00;;;;5052065;28;20036;-72
2022/11/07 02:32:14;;;;;;;3.83;1.60;;;19.70;46.80;18.70;100382.00;;;;5045256;28;20046;-72
2022/11/07 02:34:40;;;;;;;1.90;0.97;;;19.60;46.80;18.70;100396.00;;;;5072003;28;20394;-72
2022/11/07 02:37:22;;;;;;;1.00;0.80;;;19.60;46.80;18.70;100391.00;;;;5055145;28;20131;-72
2022/11/07 02:39:48;;;;;;;1.20;0.95;;;19.60;46.80;18.70;100389.00;;;;5054374;28;20099;-72
2022/11/07 02:42:13;;;;;;;2.90;0.90;;;19.50;46.80;18.70;100400.00;;;;5054756;28;20377;-72
2022/11/07 02:44:39;;;;;;;4.53;1.33;;;19.70;46.80;18.70;100396.00;;;;5053521;28;20059;-73
2022/11/07 02:47:07;;;;;;;3.23;1.47;;;19.60;46.80;18.70;100398.00;;;;5072448;28;20418;-73
2022/11/07 02:49:33;;;;;;;1.63;0.55;;;19.70;46.80;18.70;100400.00;;;;5077651;28;20402;-72
2022/11/07 02:51:59;;;;;;;3.20;1.00;;;19.60;46.80;18.80;100407.00;;;;5055210;28;20040;-72
2022/11/07 02:54:25;;;;;;;2.90;1.00;;;19.60;46.80;18.70;100408.00;;;;5057497;28;20481;-73
2022/11/07 02:56:50;;;;;;;2.50;0.80;;;19.60;46.90;18.70;100408.00;;;;5054677;28;20048;-72
2022/11/07 02:59:16;;;;;;;2.60;0.80;;;19.70;46.90;18.80;100412.00;;;;5071929;28;20052;-72
2022/11/07 03:01:42;;;;;;;3.63;1.13;;;19.70;46.90;18.80;100405.00;;;;5072284;28;20107;-72
2022/11/07 03:04:08;;;;;;;2.57;1.00;;;19.60;46.90;18.80;100407.00;;;;5070860;28;20060;-72
2022/11/07 03:06:33;;;;;;;3.43;0.80;;;19.70;46.90;18.80;100407.00;;;;5055075;28;20025;-72
2022/11/07 03:08:59;;;;;;;1.50;0.63;;;19.70;46.90;18.80;100410.00;;;;5071405;28;20082;-72
2022/11/07 03:11:25;;;;;;;2.40;1.30;;;19.70;47.00;18.80;100401.00;;;;5054053;28;20059;-72
2022/11/07 03:13:50;;;;;;;2.17;0.80;;;19.70;47.00;18.80;100404.00;;;;5071305;28;20108;-72
2022/11/07 03:16:17;;;;;;;3.27;0.83;;;19.70;47.00;18.80;100410.00;;;;5054296;28;20154;-72
2022/11/07 03:18:43;;;;;;;;;;;19.70;47.00;18.70;100398.00;;;;5053770;28;20119;-72
2022/11/07 03:21:09;;;;;;;2.25;0.88;;;19.70;46.80;18.70;100400.00;;;;5072039;28;19919;-72
2022/11/07 03:23:35;;;;;;;3.63;0.80;;;19.70;46.90;18.70;100410.00;;;;5053309;28;20036;-72
2022/11/07 03:26:01;;;;;;;5.73;1.43;;;19.70;47.00;18.70;100407.00;;;;5062016;28;20040;-72
2022/11/07 03:28:27;;;;;;;4.30;1.10;;;19.60;47.00;18.70;100414.00;;;;5053658;28;20362;-72
2022/11/07 03:30:53;;;;;;;2.03;0.80;;;19.70;47.00;18.70;100416.00;;;;5070782;28;20031;-72
2022/11/07 03:33:18;;;;;;;1.47;0.70;;;19.70;47.10;18.70;100417.00;;;;5071011;28;20534;-72
2022/11/07 03:35:44;;;;;;;4.80;0.97;;;19.70;47.10;18.70;100414.00;;;;5053564;28;20103;-72
2022/11/07 03:38:10;;;;;;;2.47;1.07;;;19.70;47.20;18.70;100420.00;;;;5057743;28;20366;-72
2022/11/07 03:40:36;;;;;;;4.30;0.93;;;19.70;47.90;18.70;100422.00;;;;5078363;28;20025;-72
2022/11/07 03:43:01;;;;;;;3.73;0.70;;;19.70;47.20;18.80;100419.00;;;;5079486;28;20032;-72
2022/11/07 03:45:27;;;;;;;3.03;0.83;;;19.70;47.30;18.70;100431.00;;;;5052567;28;20107;-72
2022/11/07 03:47:53;;;;;;;1.70;0.73;;;19.70;47.30;18.70;100424.00;;;;5071073;28;20068;-72
2022/11/07 03:50:20;;;;;;;3.03;0.93;;;19.60;47.30;18.70;100420.00;;;;5052638;28;20245;-72
2022/11/07 03:52:46;;;;;;;;;;;19.70;47.30;18.70;100421.00;;;;5054580;28;20370;-72
2022/11/07 03:55:14;;;;;;;3.55;0.90;;;19.70;47.10;18.70;100423.00;;;;5066977;28;19912;-72
2022/11/07 03:57:41;;;;;;;1.50;0.77;;;19.70;47.20;18.70;100427.00;;;;5061837;28;20047;-72
2022/11/07 04:00:07;;;;;;;2.65;0.82;;;19.70;47.30;18.70;100421.00;;;;5052190;28;20063;-72
2022/11/07 04:02:33;;;;;;;2.60;0.88;;;19.70;47.40;18.70;100425.00;;;;5036558;28;20522;-72
2022/11/07 04:04:58;;;;;;;2.60;1.10;;;19.70;47.30;18.70;100429.00;;;;5070416;28;20029;-72
2022/11/07 04:07:24;;;;;;;3.87;1.10;;;19.70;47.40;18.70;100427.00;;;;5053971;28;20091;-72
2022/11/07 04:09:50;;;;;;;2.47;0.80;;;19.70;47.50;18.70;100436.00;;;;5069590;28;20115;-72
2022/11/07 04:17:45;;;;;;;2.75;1.27;;;19.70;47.50;18.70;100439.00;;;;5068803;28;20078;-72
2022/11/07 04:20:11;;;;;;;2.87;0.97;;;19.60;47.50;18.70;100425.00;;;;5051412;28;20470;-72
2022/11/07 04:22:36;;;;;;;3.37;0.83;;;19.70;47.60;18.70;100422.00;;;;5052716;28;20107;-72
2022/11/07 04:25:02;;;;;;;3.20;1.13;;;19.50;47.50;18.70;100424.00;;;;5069928;28;20127;-72
2022/11/07 04:27:44;;;;;;;3.30;1.10;;;19.70;47.60;18.70;100432.00;;;;5036721;28;20055;-72
2022/11/07 04:30:18;;;;;;;2.92;0.90;;;19.70;47.60;18.70;100416.00;;;;5068753;28;20040;-73
2022/11/07 04:32:46;;;;;;;4.57;0.90;;;19.70;47.70;18.70;100434.00;;;;5043946;28;20100;-72
2022/11/07 04:35:12;;;;;;;4.25;1.15;;;19.70;47.60;18.70;100431.00;;;;5051368;28;20028;-73
2022/11/07 04:37:38;;;;;;;2.47;0.85;;;19.70;47.70;18.80;100430.00;;;;5052510;28;20020;-73
2022/11/07 04:40:04;;;;;;;3.67;1.00;;;19.70;47.70;18.70;100430.00;;;;5057560;28;20025;-72
2022/11/07 04:42:30;;;;;;;2.65;0.82;;;19.70;47.70;18.80;100442.00;;;;5070670;28;20032;-72
2022/11/07 04:44:55;;;;;;;3.83;1.30;;;19.70;47.80;18.80;100435.00;;;;5068946;28;20383;-72
2022/11/07 04:47:21;;;;;;;2.80;1.00;;;19.70;47.70;18.80;100430.00;;;;5070513;28;20103;-72
2022/11/07 04:49:47;;;;;;;2.90;1.13;;;19.70;47.70;18.70;100427.00;;;;5068750;28;20650;-72
2022/11/07 04:52:13;;;;;;;4.47;1.30;;;19.70;47.70;18.70;100427.00;;;;5070434;28;20487;-72
2022/11/07 04:54:39;;;;;;;4.28;1.17;;;19.70;47.80;18.80;100439.00;;;;5068942;28;20121;-72
2022/11/07 04:57:04;;;;;;;5.70;1.10;;;19.70;47.70;18.80;100433.00;;;;5070606;28;20032;-72
2022/11/07 04:59:30;;;;;;;2.23;0.90;;;19.70;47.70;18.80;100433.00;;;;5049098;28;20056;-72
2022/11/07 05:01:56;;;;;;;3.57;0.77;;;19.60;47.70;18.80;100430.00;;;;5070049;28;20123;-72
2022/11/07 05:04:22;;;;;;;4.23;1.40;;;19.60;47.70;18.70;100437.00;;;;5069785;28;20290;-72
2022/11/07 05:06:47;;;;;;;3.17;1.00;;;19.70;47.80;18.80;100437.00;;;;5052063;28;20109;-72
2022/11/07 05:09:17;;;;;;;3.83;1.33;;;19.70;48.10;18.80;100430.00;;;;5051881;28;20083;-72
2022/11/07 05:11:46;;;;;;;4.20;0.90;;;19.70;47.90;18.70;100434.00;;;;5051643;28;20034;-72
2022/11/07 05:14:12;;;;;;;4.60;1.05;;;19.70;47.80;18.80;100435.00;;;;5051120;28;20033;-72
2022/11/07 05:16:38;;;;;;;3.47;1.38;;;19.70;47.90;18.80;100435.00;;;;5051517;28;20032;-73
2022/11/07 05:19:04;;;;;;;3.90;1.55;;;19.70;47.80;18.80;100435.00;;;;5046388;28;20093;-72
2022/11/07 05:21:30;;;;;;;3.27;1.13;;;19.70;47.80;18.80;100437.00;;;;5045349;28;20417;-72
2022/11/07 05:23:55;;;;;;;2.77;0.93;;;19.70;47.90;18.80;100441.00;;;;5068584;28;20075;-72
2022/11/07 05:26:21;;;;;;;4.90;1.50;;;19.70;47.90;18.80;100437.00;;;;5068972;28;20124;-72
2022/11/07 05:28:47;;;;;;;5.77;1.10;;;19.70;47.90;18.80;100432.00;;;;5061739;28;20799;-72
2022/11/07 05:31:15;;;;;;;2.60;0.80;;;19.70;47.90;18.80;100433.00;;;;5061742;28;20442;-73
2022/11/07 05:33:41;;;;;;;3.80;1.13;;;19.70;47.90;18.80;100431.00;;;;5065475;28;20035;-73
2022/11/07 05:36:18;;;;;;;3.57;1.20;;;19.70;47.90;18.80;100439.00;;;;5032590;28;20037;-73
2022/11/07 05:38:46;;;;;;;2.55;0.90;;;19.70;47.90;18.80;100438.00;;;;5044287;28;20051;-73
2022/11/07 05:41:13;;;;;;;4.35;1.10;;;19.70;48.00;18.80;100441.00;;;;5050474;28;20028;-72
2022/11/07 05:43:39;;;;;;;5.00;0.90;;;19.70;47.90;18.80;100447.00;;;;5053911;28;20394;-73
2022/11/07 05:46:05;;;;;;;4.07;0.93;;;19.70;47.90;18.80;100442.00;;;;5073043;28;20043;-73
2022/11/07 05:48:32;;;;;;;3.53;0.90;;;19.70;48.00;18.80;100446.00;;;;5049084;28;20048;-73
2022/11/07 05:50:58;;;;;;;4.23;0.93;;;19.70;48.00;18.80;100445.00;;;;5048138;28;20492;-73
2022/11/07 05:53:24;;;;;;;5.40;1.00;;;19.70;48.00;18.80;100452.00;;;;5046963;28;20454;-73
2022/11/07 05:55:51;;;;;;;5.75;1.75;;;19.70;48.00;18.80;100452.00;;;;5033448;28;20025;-73
2022/11/07 05:58:17;;;;;;;5.30;1.67;;;19.70;48.00;18.80;100458.00;;;;5051320;28;20043;-73
2022/11/07 06:00:43;;;;;;;5.05;1.20;;;19.70;48.00;18.80;100452.00;;;;5067553;28;20078;-73
2022/11/07 06:03:09;;;;;;;3.10;1.07;;;19.70;48.00;18.80;100455.00;;;;5072740;28;20070;-72
2022/11/07 06:05:36;;;;;;;4.03;1.03;;;19.60;47.90;18.80;100443.00;;;;5054417;28;20067;-72
2022/11/07 06:08:02;;;;;;;5.18;1.27;;;19.70;48.00;18.80;100446.00;;;;5054765;28;20133;-73
2022/11/07 06:10:28;;;;;;;2.77;1.03;;;19.70;48.00;18.80;100448.00;;;;5071876;28;20033;-73
2022/11/07 06:13:02;;;;;;;5.33;1.33;;;19.70;48.00;18.80;100458.00;;;;5072142;28;20060;-73
2022/11/07 06:15:30;;;;;;;3.83;1.23;;;19.80;48.10;18.80;100453.00;;;;5071836;28;20032;-73
2022/11/07 06:18:00;;;;;;;4.70;1.15;;;19.70;48.00;18.80;100467.00;;;;5035719;28;20045;-73
2022/11/07 06:20:26;;;;;;;6.18;1.70;;;19.70;48.00;18.80;100458.00;;;;5050572;28;20111;-73
2022/11/07 06:22:56;;;;;;;5.85;1.35;;;19.70;48.00;18.80;100457.00;;;;5053345;28;20108;-73
2022/11/07 06:25:22;;;;;;;2.45;0.90;;;19.70;48.00;18.80;100465.00;;;;5069637;28;20036;-73
2022/11/07 06:27:47;;;;;;;7.60;1.47;;;19.70;48.00;18.80;100464.00;;;;5066139;28;20054;-73
2022/11/07 06:30:13;;;;;;;3.57;1.50;;;19.70;48.00;18.80;100454.00;;;;5052275;28;20147;-73
2022/11/07 06:32:43;;;;;;;5.40;1.60;;;19.70;48.00;18.80;100471.00;;;;5054208;28;20129;-73
2022/11/07 06:35:10;;;;;;;5.13;2.03;;;19.80;48.00;18.80;100471.00;;;;5054364;28;20536;-73
2022/11/07 06:37:35;;;;;;;7.28;2.00;;;19.80;48.00;18.90;100460.00;;;;5057446;28;20067;-73
2022/11/07 06:40:01;;;;;;;5.30;1.63;;;19.80;48.10;18.80;100465.00;;;;5053748;28;20469;-75
2022/11/07 06:42:27;;;;;;;4.47;1.70;;;19.80;48.10;18.80;100474.00;;;;5067780;28;20063;-73
2022/11/07 06:44:52;;;;;;;3.67;1.13;;;19.80;48.00;18.80;100476.00;;;;5064686;28;20183;-73
2022/11/07 06:47:18;;;;;;;5.37;1.60;;;19.80;48.00;18.80;100472.00;;;;5053860;28;20073;-72
2022/11/07 06:49:44;;;;;;;4.27;1.50;;;19.80;48.00;18.80;100471.00;;;;5066682;28;20024;-72
2022/11/07 06:52:10;;;;;;;3.87;1.63;;;19.70;48.00;18.80;100477.00;;;;5077289;28;20059;-72
2022/11/07 06:54:35;;;;;;;5.13;1.40;;;19.80;48.80;18.80;100470.00;;;;5069633;28;20090;-72
2022/11/07 06:57:01;;;;;;;7.07;1.70;;;19.80;48.10;18.80;100471.00;;;;5071084;28;20692;-72
2022/11/07 06:59:27;;;;;;;4.53;1.47;;;19.80;48.10;18.80;100471.00;;;;5070308;28;20552;-72
2022/11/07 07:01:52;;;;;;;7.37;1.67;;;19.80;48.00;18.80;100482.00;;;;5068950;28;20115;-72
2022/11/07 07:04:18;;;;;;;6.97;2.07;;;19.80;48.10;18.80;100474.00;;;;5068428;28;20107;-72
2022/11/07 07:06:44;;;;;;;3.37;1.13;;;19.80;48.10;18.80;100477.00;;;;5060652;28;20107;-73
2022/11/07 07:09:10;;;;;;;3.75;1.30;;;19.80;48.10;18.80;100475.00;;;;5066565;28;20498;-72
2022/11/07 07:11:36;;;;;;;5.97;1.83;;;19.80;48.10;18.80;100482.00;;;;5071714;28;20037;-73
2022/11/07 07:14:03;;;;;;;7.10;1.47;;;19.90;48.20;18.80;100491.00;;;;5068524;28;20135;-72
2022/11/07 07:16:28;;;;;;;5.20;1.73;;;19.80;48.10;18.80;100493.00;;;;5071983;28;20498;-72
2022/11/07 07:18:54;;;;;;;7.87;1.67;;;19.80;48.10;18.80;100503.00;;;;5070424;28;20082;-72
2022/11/07 07:21:20;;;;;;;3.47;1.60;;;19.80;48.10;18.80;100502.00;;;;5071570;28;20112;-72
2022/11/07 07:23:45;;;;;;;6.63;1.60;;;19.80;48.10;18.80;100508.00;;;;5070295;28;20120;-72
2022/11/07 07:26:13;;;;;;;5.03;1.37;;;19.80;48.10;18.80;100516.00;;;;5050734;28;20028;-72
2022/11/07 07:28:39;;;;;;;2.95;1.58;;;19.80;48.20;18.80;100508.00;;;;5052107;28;20088;-72
2022/11/07 07:31:12;;;;;;;4.07;1.40;;;19.80;48.10;18.80;100514.00;;;;5071814;28;20494;-72
2022/11/07 07:33:39;;;;;;;6.78;1.58;;;19.80;48.20;18.80;100512.00;;;;5050088;28;20029;-72
2022/11/07 07:36:05;;;;;;;3.78;1.48;;;19.80;48.10;18.80;100511.00;;;;5071093;28;20040;-72
2022/11/07 07:38:31;;;;;;;4.20;1.20;;;19.80;48.10;18.80;100516.00;;;;5068457;28;20028;-72
2022/11/07 07:41:00;;;;;;;4.53;1.57;;;19.80;48.10;18.80;100516.00;;;;5069079;28;20630;-73
2022/11/07 07:43:26;;;;;;;5.55;1.42;;;19.80;48.20;18.80;100516.00;;;;5049082;28;20466;-72
2022/11/07 07:45:52;;;;;;;6.32;1.52;;;19.80;48.20;18.80;100513.00;;;;5069720;28;20432;-72
2022/11/07 07:48:18;;;;;;;2.87;1.00;;;19.70;48.10;18.80;100524.00;;;;5068356;28;20032;-72
2022/11/07 07:50:46;;;;;;;4.30;1.20;;;19.80;48.10;18.80;100524.00;;;;5067345;28;20036;-72
2022/11/07 07:53:12;;;;;;;5.47;1.90;;;19.80;48.10;18.80;100523.00;;;;5059731;28;20079;-73
2022/11/07 07:55:38;;;;;;;3.97;1.27;;;19.80;48.10;18.80;100524.00;;;;5068777;28;20029;-72
2022/11/07 07:58:04;;;;;;;3.77;1.30;;;19.80;48.20;18.90;100527.00;;;;5068672;28;20508;-73
2022/11/07 08:00:29;;;;;;;4.67;1.40;;;19.70;48.10;18.80;100530.00;;;;5068645;28;20476;-72
2022/11/07 08:03:02;;;;;;;4.97;1.30;;;19.80;48.20;18.80;100534.00;;;;5069759;28;20359;-73
2022/11/07 08:05:28;;;;;;;4.15;1.25;;;19.80;48.20;18.80;100529.00;;;;5048999;28;20525;-73
2022/11/07 08:07:54;;;;;;;5.17;1.37;;;19.80;48.10;18.80;100526.00;;;;5068359;28;20033;-72
2022/11/07 08:10:19;;;;;;;4.83;1.27;;;19.80;48.20;18.80;100530.00;;;;5069356;28;20037;-73
2022/11/07 08:12:47;;;;;;;3.97;1.07;;;19.80;48.10;18.80;100520.00;;;;5051977;28;20107;-72
2022/11/07 08:15:13;;;;;;;5.35;1.40;;;19.80;48.20;18.80;100529.00;;;;5035668;28;20029;-72
2022/11/07 08:17:39;;;;;;;3.97;1.40;;;19.80;48.20;18.80;100532.00;;;;5044891;28;20077;-73
2022/11/07 08:20:08;;;;;;;2.95;1.10;;;19.70;48.10;18.80;100530.00;;;;5051198;28;20044;-74
2022/11/07 08:22:35;;;;;;;3.17;1.17;;;19.70;48.20;18.80;100532.00;;;;5047645;28;20297;-72
2022/11/07 08:25:00;;;;;;;4.53;1.05;;;19.80;48.20;18.90;100529.00;;;;5068009;28;20044;-73
2022/11/07 08:27:26;;;;;;;4.40;1.40;;;19.80;48.20;18.80;100533.00;;;;5069384;28;20107;-73
2022/11/07 08:29:52;;;;;;;4.80;1.40;;;19.80;48.20;18.80;100528.00;;;;5067202;28;20468;-72
2022/11/07 08:32:17;;;;;;;4.17;1.30;;;19.80;48.20;18.80;100529.00;;;;5050678;28;20584;-72
2022/11/07 08:34:43;;;;;;;5.83;1.47;;;19.70;48.20;18.80;100533.00;;;;5067803;28;20120;-73
2022/11/07 08:37:09;;;;;;;5.67;1.17;;;19.80;48.30;18.80;100528.00;;;;5052828;28;20124;-73
2022/11/07 08:39:35;;;;;;;5.23;1.57;;;19.80;48.30;18.80;100536.00;;;;5069572;28;20124;-73
2022/11/07 08:42:00;;;;;;;3.73;1.07;;;19.70;48.20;18.80;100529.00;;;;5070684;28;20154;-72
2022/11/07 08:44:26;;;;;;;2.67;1.07;;;19.80;48.30;18.80;100531.00;;;;5069659;28;20109;-73
2022/11/07 08:46:52;;;;;;;3.57;1.10;;;19.80;48.30;18.80;100527.00;;;;5068640;28;20085;-73
2022/11/07 08:49:18;;;;;;;4.40;0.87;;;19.80;48.40;18.80;100530.00;;;;5069249;28;20055;-72
2022/11/07 08:51:43;;;;;;;6.43;1.03;;;19.80;48.40;18.80;100529.00;;;;5069244;28;20044;-73
2022/11/07 08:54:11;;;;;;;8.10;1.60;;;19.80;48.40;18.80;100529.00;;;;5050165;28;20165;-72
2022/11/07 08:56:37;;;;;;;5.78;1.20;;;19.80;48.40;18.80;100529.00;;;;5051827;28;20111;-72
2022/11/07 08:59:03;;;;;;;4.77;1.20;;;19.80;48.40;18.80;100530.00;;;;5068872;28;20071;-73
2022/11/07 09:01:28;;;;;;;4.07;1.27;;;19.80;48.40;18.80;100530.00;;;;5069468;28;21110;-72
2022/11/07 09:03:54;;;;;;;5.30;1.33;;;19.80;48.40;18.80;100534.00;;;;5067651;28;20112;-73
2022/11/07 09:06:20;;;;;;;6.47;1.60;;;19.80;48.40;18.80;100527.00;;;;5048297;28;20138;-73
2022/11/07 09:08:46;;;;;;;4.57;1.00;;;19.80;48.40;18.90;100540.00;;;;5071637;28;20114;-73
2022/11/07 09:11:14;;;;;;;5.50;0.97;;;19.80;48.40;18.90;100526.00;;;;5065482;28;20568;-72
2022/11/07 09:13:40;;;;;;;4.15;1.38;;;19.80;48.40;18.90;100532.00;;;;5067880;28;20025;-72
2022/11/07 09:16:06;;;;;;;5.53;1.37;;;19.80;48.40;18.90;100534.00;;;;5074215;28;20078;-72
2022/11/07 09:18:32;;;;;;;6.32;1.33;;;19.80;48.40;18.90;100543.00;;;;5067569;28;20443;-72
2022/11/07 09:20:57;;;;;;;4.10;1.40;;;19.80;48.40;18.80;100548.00;;;;5059697;28;20043;-72
2022/11/07 09:23:24;;;;;;;4.70;1.37;;;19.80;48.40;18.90;100558.00;;;;5067706;28;20450;-73
2022/11/07 09:25:49;;;;;;;6.15;1.40;;;19.80;48.40;18.90;100558.00;;;;5068227;28;20501;-72
2022/11/07 09:28:15;;;;;;;7.20;1.17;;;19.90;48.50;18.90;100563.00;;;;5050904;28;20055;-72
2022/11/07 09:30:41;;;;;;;4.93;1.30;;;19.80;48.40;18.90;100559.00;;;;5049156;28;20021;-72
2022/11/07 09:33:07;;;;;;;3.97;1.17;;;19.80;48.50;18.90;100570.00;;;;5051301;28;20036;-72
2022/11/07 09:35:32;;;;;;;4.53;1.10;;;19.80;48.40;18.90;100571.00;;;;5068743;28;20028;-72
2022/11/07 09:37:58;;;;;;;7.63;1.33;;;19.80;48.50;18.90;100563.00;;;;5055115;28;20128;-72
2022/11/07 09:40:51;;;;;;;3.63;1.00;;;19.80;48.50;18.90;100573.00;;;;5073081;28;20103;-73
2022/11/07 09:44:00;;;;;;;2.63;1.10;;;19.80;48.60;18.90;100581.00;;;;5073134;28;20124;-73
2022/11/07 09:46:58;;;;;;;5.38;1.10;;;19.80;48.50;18.80;100569.00;;;;5072207;28;20055;-73
2022/11/07 09:49:38;;;;;;;8.27;1.35;;;19.80;48.70;18.80;100571.00;;;;5072910;28;20020;-73
2022/11/07 09:52:30;;;;;;;3.58;1.08;;;19.80;48.70;18.80;100574.00;;;;5048170;28;20029;-73
2022/11/07 09:55:25;;;;;;;5.00;1.02;;;19.80;48.70;18.80;100576.00;;;;5069582;28;20094;-73
2022/11/07 09:57:54;;;;;;;5.13;0.90;;;19.80;48.80;18.80;100572.00;;;;5070227;28;20072;-73
2022/11/07 10:00:20;;;;;;;5.10;1.42;;;19.80;48.80;18.80;100587.00;;;;5053685;28;20524;-73
2022/11/07 10:02:52;;;;;;;4.13;0.93;;;19.80;48.80;18.90;100591.00;;;;5055137;28;20038;-73
2022/11/07 10:05:41;;;;;;;3.88;1.05;;;19.80;48.80;18.90;100596.00;;;;5034315;28;20044;-73
2022/11/07 10:08:24;;;;;;;4.50;1.00;;;19.80;48.90;18.90;100593.00;;;;5054045;28;20108;-73
2022/11/07 10:11:11;;;;;;;2.88;1.00;;;19.80;48.80;18.90;100593.00;;;;5050603;28;20293;-73
2022/11/07 10:13:51;;;;;;;7.82;1.08;;;19.80;48.90;18.90;100592.00;;;;5050781;28;20078;-73
2022/11/07 10:16:46;;;;;;;4.93;0.93;;;19.80;48.90;18.90;100596.00;;;;5070738;28;20042;-73
2022/11/07 10:20:09;;;;;;;5.93;1.13;;;19.80;48.90;18.90;100604.00;;;;5062267;28;20074;-73
2022/11/07 10:23:15;;;;;;;5.57;1.30;;;19.80;49.00;18.90;100610.00;;;;5000273;28;20034;-72
2022/11/07 10:25:51;;;;;;;4.15;1.13;;;19.80;48.90;18.90;100605.00;;;;5055459;28;20009;-72
2022/11/07 10:28:18;;;;;;;6.30;2.17;;;19.80;48.80;18.90;100598.00;;;;5037545;28;20025;-73
2022/11/07 10:30:51;;;;;;;7.22;1.23;;;19.80;49.00;18.90;100610.00;;;;5072134;28;20030;-73
2022/11/07 10:33:38;;;;;;;5.13;1.15;;;19.90;49.20;18.90;100601.00;;;;5052619;28;20032;-72
2022/11/07 10:36:23;;;;;;;3.72;0.93;;;19.80;49.00;18.90;100612.00;;;;5031446;28;20122;-73
2022/11/07 10:38:49;;;;;;;3.97;1.20;;;19.90;49.20;18.90;100609.00;;;;5078411;28;20044;-73
2022/11/07 10:41:21;;;;;;;6.37;1.47;;;19.90;49.20;18.90;100616.00;;;;5054037;28;20502;-72
2022/11/07 10:44:01;;;;;;;4.45;0.93;;;19.80;49.10;18.90;100615.00;;;;5071064;28;20047;-72
2022/11/07 10:46:35;;;;;;;5.28;1.83;;;19.90;49.20;18.90;100616.00;;;;5023900;28;20043;-72
2022/11/07 10:49:01;;;;;;;4.05;1.13;;;19.90;49.10;18.90;100612.00;;;;5034198;28;20028;-73
2022/11/07 10:51:33;;;;;;;;;;;19.90;49.10;18.90;100608.00;;;;5053468;28;20084;-73
2022/11/07 10:53:59;;;;;;;3.78;0.88;;;19.90;49.00;18.90;100613.00;;;;5069629;28;19939;-73
2022/11/07 10:56:25;;;;;;;4.23;0.83;;;19.90;49.00;18.90;100612.00;;;;5071095;28;20032;-73
2022/11/07 10:58:50;;;;;;;6.73;2.07;;;19.90;49.00;18.90;100603.00;;;;5075309;28;20447;-72
2022/11/07 11:01:22;;;;;;;4.60;1.00;;;19.90;49.10;18.90;100598.00;;;;5052385;28;20063;-72